createdAt,value
2022-09-11T00:01:39.743Z,19.40
2022-09-11T00:04:07.855Z,20.70
2022-09-11T00:06:35.723Z,18.30
2022-09-11T00:09:05.925Z,18.70
2022-09-11T00:11:39.557Z,18.60
2022-09-11T00:14:08.204Z,17.90
2022-09-11T00:16:39.678Z,18.60
2022-09-11T00:19:19.018Z,18.60
2022-09-11T00:21:49.129Z,19.50
2022-09-11T00:24:16.778Z,19.10
2022-09-11T00:26:47.555Z,18.30
2022-09-11T00:29:15.603Z,20.00
2022-09-11T00:31:43.355Z,19.40
2022-09-11T00:34:11.221Z,19.60
2022-09-11T00:36:41.561Z,18.30
2022-09-11T00:39:14.272Z,19.10
2022-09-11T00:41:46.089Z,19.00
2022-09-11T00:44:15.912Z,20.00
2022-09-11T00:46:47.654Z,19.50
2022-09-11T00:49:36.019Z,19.80
2022-09-11T00:52:07.800Z,19.40
2022-09-11T00:54:43.112Z,20.40
2022-09-11T00:57:11.081Z,22.30
2022-09-11T00:59:43.643Z,21.00
2022-09-11T01:02:15.723Z,25.20
2022-09-11T01:04:43.475Z,23.50
2022-09-11T01:07:13.703Z,24.50
2022-09-11T01:09:42.885Z,25.90
2022-09-11T01:12:23.696Z,25.70
2022-09-11T01:15:03.755Z,27.60
2022-09-11T01:17:45.596Z,27.20
2022-09-11T01:20:36.442Z,27.80
2022-09-11T01:23:17.397Z,27.20
2022-09-11T01:26:03.986Z,28.90
2022-09-11T01:28:59.379Z,27.50
2022-09-11T01:31:33.756Z,29.60
2022-09-11T01:34:25.457Z,29.70
2022-09-11T01:37:00.983Z,28.30
2022-09-11T01:39:36.299Z,30.40
2022-09-11T01:42:12.834Z,29.50
2022-09-11T01:44:50.401Z,28.60
2022-09-11T01:47:21.075Z,30.70
2022-09-11T01:49:59.035Z,31.00
2022-09-11T01:52:35.525Z,29.00
2022-09-11T01:55:20.488Z,28.50
2022-09-11T01:58:18.256Z,29.10
2022-09-11T02:00:49.790Z,27.00
2022-09-11T02:03:42.537Z,29.60
2022-09-11T02:06:20.020Z,30.50
2022-09-11T02:08:53.004Z,27.60
2022-09-11T02:11:23.195Z,29.20
2022-09-11T02:14:10.570Z,29.60
2022-09-11T02:16:54.504Z,28.60
2022-09-11T02:19:29.532Z,28.50
2022-09-11T02:21:58.567Z,28.40
2022-09-11T02:24:27.359Z,28.90
2022-09-11T02:27:00.612Z,28.10
2022-09-11T02:29:30.625Z,27.90
2022-09-11T02:32:00.882Z,27.80
2022-09-11T02:34:33.443Z,27.90
2022-09-11T02:37:32.525Z,27.00
2022-09-11T02:40:06.351Z,28.00
2022-09-11T02:42:47.525Z,26.60
2022-09-11T02:45:54.173Z,25.70
2022-09-11T02:48:38.175Z,26.20
2022-09-11T02:54:05.188Z,25.30
2022-09-11T02:56:32.765Z,24.40
2022-09-11T02:59:20.784Z,25.10
2022-09-11T03:01:56.411Z,24.80
2022-09-11T03:04:26.376Z,24.40
2022-09-11T03:06:56.569Z,24.00
2022-09-11T03:09:24.239Z,22.10
2022-09-11T03:11:55.294Z,21.90
2022-09-11T03:14:23.325Z,22.10
2022-09-11T03:16:50.917Z,23.70
2022-09-11T03:19:19.493Z,22.00
2022-09-11T03:21:47.141Z,22.00
2022-09-11T03:24:17.085Z,20.50
2022-09-11T03:26:45.279Z,20.00
2022-09-11T03:29:13.527Z,18.60
2022-09-11T03:31:42.162Z,19.30
2022-09-11T03:34:10.393Z,18.40
2022-09-11T03:36:38.150Z,18.70
2022-09-11T03:39:06.577Z,19.40
2022-09-11T03:41:34.220Z,19.10
2022-09-11T03:44:02.040Z,19.10
2022-09-11T03:46:30.343Z,18.60
2022-09-11T03:48:59.532Z,18.50
2022-09-11T03:51:27.468Z,18.10
2022-09-11T03:54:00.503Z,18.30
2022-09-11T03:56:29.369Z,20.00
2022-09-11T03:59:00.060Z,19.30
2022-09-11T04:01:28.066Z,19.40
2022-09-11T04:03:57.089Z,20.60
2022-09-11T04:06:34.617Z,18.00
2022-09-11T04:09:04.343Z,17.40
2022-09-11T04:11:36.705Z,16.70
2022-09-11T04:14:07.895Z,17.10
2022-09-11T04:16:36.691Z,16.10
2022-09-11T04:19:04.789Z,15.90
2022-09-11T04:21:34.682Z,16.60
2022-09-11T04:24:02.711Z,14.80
2022-09-11T04:26:32.673Z,14.60
2022-09-11T04:29:06.724Z,13.80
2022-09-11T04:31:36.373Z,14.40
2022-09-11T04:34:04.527Z,13.70
2022-09-11T04:36:35.351Z,14.50
2022-09-11T04:39:03.638Z,14.20
2022-09-11T04:41:31.380Z,14.90
2022-09-11T04:44:05.276Z,14.30
2022-09-11T04:46:34.748Z,15.50
2022-09-11T04:49:03.431Z,15.00
2022-09-11T04:51:34.694Z,16.00
2022-09-11T04:54:04.276Z,16.10
2022-09-11T04:56:40.168Z,15.50
2022-09-11T04:59:19.768Z,17.20
2022-09-11T05:01:55.513Z,16.90
2022-09-11T05:04:26.145Z,17.10
2022-09-11T05:06:55.558Z,17.70
2022-09-11T05:09:26.619Z,17.10
2022-09-11T05:11:54.424Z,17.30
2022-09-11T05:14:23.769Z,17.90
2022-09-11T05:16:52.857Z,17.70
2022-09-11T05:19:22.873Z,18.30
2022-09-11T05:21:52.031Z,18.70
2022-09-11T05:24:20.357Z,19.70
2022-09-11T05:26:48.057Z,20.10
2022-09-11T05:29:16.460Z,19.00
2022-09-11T05:31:53.147Z,19.40
2022-09-11T05:34:22.158Z,18.90
2022-09-11T05:36:50.411Z,21.80
2022-09-11T05:39:18.761Z,21.10
2022-09-11T05:41:46.468Z,20.50
2022-09-11T05:44:14.343Z,19.80
2022-09-11T05:46:42.006Z,19.60
2022-09-11T05:49:09.646Z,19.60
2022-09-11T05:51:38.047Z,19.70
2022-09-11T05:54:06.345Z,20.00
2022-09-11T05:56:34.720Z,19.30
2022-09-11T05:59:14.143Z,19.80
2022-09-11T06:01:43.127Z,19.00
2022-09-11T06:04:18.591Z,18.90
2022-09-11T06:06:48.498Z,19.00
2022-09-11T06:09:17.333Z,18.20
2022-09-11T06:11:45.267Z,18.50
2022-09-11T06:14:13.418Z,18.40
2022-09-11T06:16:42.457Z,20.50
2022-09-11T06:19:13.079Z,17.30
2022-09-11T06:21:41.560Z,18.70
2022-09-11T06:24:16.478Z,17.30
2022-09-11T06:26:46.489Z,18.30
2022-09-11T06:29:15.982Z,18.10
2022-09-11T06:31:48.869Z,17.80
2022-09-11T06:34:19.721Z,17.10
2022-09-11T06:36:51.770Z,15.90
2022-09-11T06:39:20.493Z,16.50
2022-09-11T06:41:48.464Z,17.10
2022-09-11T06:44:17.199Z,16.40
2022-09-11T06:46:45.582Z,14.90
2022-09-11T06:49:14.378Z,14.70
2022-09-11T06:51:59.368Z,15.70
2022-09-11T06:54:27.417Z,15.10
2022-09-11T06:56:58.156Z,15.60
2022-09-11T06:59:26.526Z,14.80
2022-09-11T07:01:55.416Z,14.20
2022-09-11T07:04:24.310Z,14.40
2022-09-11T07:06:51.977Z,14.70
2022-09-11T07:09:19.929Z,15.10
2022-09-11T07:11:52.305Z,16.20
2022-09-11T07:14:23.668Z,14.90
2022-09-11T07:16:55.344Z,13.70
2022-09-11T07:19:25.453Z,14.70
2022-09-11T07:21:53.408Z,14.50
2022-09-11T07:24:22.264Z,13.10
2022-09-11T07:26:50.234Z,12.90
2022-09-11T07:29:25.805Z,12.50
2022-09-11T07:31:55.829Z,12.70
2022-09-11T07:34:23.606Z,12.20
2022-09-11T07:36:52.882Z,11.70
2022-09-11T07:39:21.132Z,11.30
2022-09-11T07:41:57.159Z,12.40
2022-09-11T07:44:28.272Z,11.70
2022-09-11T07:46:56.221Z,11.00
2022-09-11T07:49:24.856Z,10.90
2022-09-11T07:51:54.521Z,11.40
2022-09-11T07:54:29.144Z,12.40
2022-09-11T07:56:58.382Z,11.60
2022-09-11T07:59:26.130Z,11.50
2022-09-11T08:01:55.608Z,12.30
2022-09-11T08:04:24.503Z,10.40
2022-09-11T08:06:52.626Z,9.80
2022-09-11T08:09:28.245Z,10.00
2022-09-11T08:11:58.883Z,10.20
2022-09-11T08:14:27.460Z,9.30
2022-09-11T08:16:58.695Z,10.40
2022-09-11T08:19:28.440Z,9.60
2022-09-11T08:21:59.245Z,9.50
2022-09-11T08:24:27.619Z,9.20
2022-09-11T08:26:58.609Z,9.40
2022-09-11T08:29:26.812Z,9.00
2022-09-11T08:31:57.192Z,10.20
2022-09-11T08:34:28.812Z,8.30
2022-09-11T08:36:56.399Z,8.90
2022-09-11T08:39:25.167Z,8.00
2022-09-11T08:42:02.449Z,8.10
2022-09-11T08:44:41.678Z,7.50
2022-09-11T08:47:29.174Z,8.10
2022-09-11T08:50:04.456Z,7.20
2022-09-11T08:52:35.897Z,7.50
2022-09-11T08:55:04.371Z,7.40
2022-09-11T08:58:04.614Z,7.80
2022-09-11T09:00:48.238Z,7.50
2022-09-11T09:03:33.553Z,7.00
2022-09-11T09:06:28.476Z,6.80
2022-09-11T09:11:40.009Z,6.70
2022-09-11T09:14:22.295Z,5.90
2022-09-11T09:17:14.241Z,6.20
2022-09-11T09:20:01.468Z,6.70
2022-09-11T09:22:47.461Z,6.30
2022-09-11T09:25:22.871Z,7.00
2022-09-11T09:28:29.377Z,5.60
2022-09-11T09:31:00.356Z,4.60
2022-09-11T09:33:35.593Z,4.70
2022-09-11T09:36:18.385Z,4.30
2022-09-11T09:38:46.835Z,4.30
2022-09-11T09:41:49.542Z,3.90
2022-09-11T09:44:36.839Z,4.80
2022-09-11T09:47:05.540Z,4.30
2022-09-11T09:49:35.680Z,4.30
2022-09-11T09:52:18.464Z,4.00
2022-09-11T09:54:55.270Z,3.90
2022-09-11T09:57:27.618Z,4.40
2022-09-11T10:00:04.375Z,3.80
2022-09-11T10:02:49.038Z,3.30
2022-09-11T10:05:19.670Z,3.20
2022-09-11T10:08:12.252Z,3.50
2022-09-11T10:10:41.102Z,4.10
2022-09-11T10:13:28.239Z,2.90
2022-09-11T10:15:59.542Z,2.70
2022-09-11T10:18:47.124Z,2.90
2022-09-11T10:21:35.223Z,2.90
2022-09-11T10:24:19.587Z,2.90
2022-09-11T10:26:51.144Z,2.80
2022-09-11T10:29:24.287Z,2.90
2022-09-11T10:32:02.724Z,3.20
2022-09-11T10:34:39.131Z,2.80
2022-09-11T10:37:15.953Z,2.90
2022-09-11T10:39:47.273Z,2.60
2022-09-11T10:42:26.497Z,2.40
2022-09-11T10:45:00.255Z,2.90
2022-09-11T10:47:31.746Z,2.50
2022-09-11T10:50:11.222Z,2.30
2022-09-11T10:53:09.736Z,2.90
2022-09-11T10:55:46.009Z,2.80
2022-09-11T10:58:22.606Z,3.00
2022-09-11T11:00:52.119Z,3.20
2022-09-11T11:03:24.879Z,2.90
2022-09-11T11:06:15.504Z,2.80
2022-09-11T11:09:05.284Z,2.60
2022-09-11T11:12:07.014Z,2.10
2022-09-11T11:14:49.937Z,3.20
2022-09-11T11:17:35.329Z,3.00
2022-09-11T11:20:34.945Z,3.10
2022-09-11T11:23:22.265Z,2.50
2022-09-11T11:26:06.393Z,2.10
2022-09-11T11:29:00.406Z,2.80
2022-09-11T11:31:55.599Z,2.50
2022-09-11T11:35:01.253Z,2.40
2022-09-11T11:37:34.447Z,2.20
2022-09-11T11:40:22.069Z,1.90
2022-09-11T11:43:05.290Z,2.40
2022-09-11T11:45:41.399Z,2.90
2022-09-11T11:48:17.605Z,2.30
2022-09-11T11:50:55.323Z,2.30
2022-09-11T11:53:31.275Z,2.40
2022-09-11T11:56:20.220Z,2.30
2022-09-11T11:59:01.389Z,2.10
2022-09-11T12:01:40.124Z,2.60
2022-09-11T12:04:40.467Z,2.60
2022-09-11T12:07:26.483Z,1.90
2022-09-11T12:09:56.058Z,2.40
2022-09-11T12:12:27.941Z,1.90
2022-09-11T12:15:19.758Z,2.40
2022-09-11T12:18:00.326Z,2.40
2022-09-11T12:20:30.740Z,2.60
2022-09-11T12:23:00.677Z,2.60
2022-09-11T12:25:28.237Z,2.40
2022-09-11T12:28:27.859Z,2.00
2022-09-11T12:31:08.430Z,2.30
2022-09-11T12:33:48.409Z,2.30
2022-09-11T12:36:36.526Z,2.10
2022-09-11T12:39:36.142Z,2.60
2022-09-11T12:42:25.779Z,2.80
2022-09-11T12:44:54.082Z,2.30
2022-09-11T12:47:29.187Z,2.50
2022-09-11T12:50:16.433Z,2.60
2022-09-11T12:52:52.204Z,2.40
2022-09-11T12:55:50.938Z,2.10
2022-09-11T12:58:19.343Z,2.20
2022-09-11T13:01:01.620Z,2.00
2022-09-11T13:03:30.010Z,2.60
2022-09-11T13:06:07.392Z,2.30
2022-09-11T13:08:46.040Z,1.90
2022-09-11T13:11:45.655Z,2.20
2022-09-11T13:14:32.066Z,2.10
2022-09-11T13:17:02.221Z,2.10
2022-09-11T13:19:37.385Z,1.90
2022-09-11T13:22:27.578Z,2.20
2022-09-11T13:25:17.878Z,2.10
2022-09-11T13:27:49.939Z,2.40
2022-09-11T13:30:21.591Z,2.10
2022-09-11T13:33:12.988Z,2.50
2022-09-11T13:35:45.613Z,2.10
2022-09-11T13:38:18.854Z,1.80
2022-09-11T13:40:58.006Z,2.30
2022-09-11T13:43:30.796Z,1.70
2022-09-11T13:46:15.471Z,2.50
2022-09-11T13:48:45.488Z,1.90
2022-09-11T13:51:14.930Z,2.00
2022-09-11T13:53:45.311Z,2.00
2022-09-11T13:56:21.355Z,2.10
2022-09-11T13:58:53.338Z,2.30
2022-09-11T14:01:21.422Z,2.10
2022-09-11T14:03:49.225Z,2.10
2022-09-11T14:06:20.534Z,1.80
2022-09-11T14:08:57.270Z,2.50
2022-09-11T14:11:31.793Z,2.40
2022-09-11T14:14:11.671Z,2.60
2022-09-11T14:16:49.036Z,2.30
2022-09-11T14:19:21.403Z,2.50
2022-09-11T14:21:50.896Z,2.40
2022-09-11T14:24:33.182Z,2.10
2022-09-11T14:27:04.272Z,1.80
2022-09-11T14:29:36.212Z,2.30
2022-09-11T14:32:36.878Z,2.30
2022-09-11T14:35:08.388Z,2.60
2022-09-11T14:37:45.600Z,2.40
2022-09-11T14:40:19.266Z,2.00
2022-09-11T14:42:47.858Z,2.40
2022-09-11T14:45:25.784Z,2.60
2022-09-11T14:47:53.835Z,2.10
2022-09-11T14:50:22.657Z,1.90
2022-09-11T14:52:51.213Z,2.00
2022-09-11T14:55:20.056Z,2.00
2022-09-11T14:57:47.965Z,2.10
2022-09-11T15:00:18.093Z,2.00
2022-09-11T15:02:47.720Z,1.90
2022-09-11T15:05:18.996Z,2.00
2022-09-11T15:07:47.052Z,1.90
2022-09-11T15:10:15.110Z,2.20
2022-09-11T15:12:42.797Z,2.30
2022-09-11T15:15:11.592Z,2.10
2022-09-11T15:17:39.229Z,2.10
2022-09-11T15:20:10.260Z,2.10
2022-09-11T15:22:38.566Z,1.90
2022-09-11T15:25:07.205Z,2.20
2022-09-11T15:27:34.818Z,1.90
2022-09-11T15:30:02.516Z,2.00
2022-09-11T15:32:31.340Z,2.00
2022-09-11T15:34:58.964Z,1.90
2022-09-11T15:37:26.628Z,1.70
2022-09-11T15:39:54.769Z,1.90
2022-09-11T15:42:22.620Z,1.90
2022-09-11T15:44:51.887Z,2.10
2022-09-11T15:47:19.482Z,2.30
2022-09-11T15:49:50.018Z,2.00
2022-09-11T15:52:17.897Z,2.10
2022-09-11T15:54:47.534Z,2.00
2022-09-11T15:57:15.514Z,2.10
2022-09-11T15:59:43.117Z,2.20
2022-09-11T16:02:12.311Z,2.00
2022-09-11T16:04:40.164Z,2.10
2022-09-11T16:07:07.846Z,2.70
2022-09-11T16:09:35.558Z,2.40
2022-09-11T16:12:03.413Z,2.60
2022-09-11T16:14:33.585Z,2.20
2022-09-11T16:17:02.874Z,2.40
2022-09-11T16:19:31.724Z,2.20
2022-09-11T16:22:02.269Z,2.30
2022-09-11T16:24:32.693Z,2.10
2022-09-11T16:27:01.598Z,2.50
2022-09-11T16:29:49.350Z,2.30
2022-09-11T16:32:28.058Z,2.20
2022-09-11T16:34:57.764Z,2.30
2022-09-11T16:37:26.282Z,2.20
2022-09-11T16:39:54.130Z,2.70
2022-09-11T16:42:22.186Z,2.50
2022-09-11T16:44:50.446Z,2.50
2022-09-11T16:47:18.198Z,2.40
2022-09-11T16:52:34.742Z,3.10
2022-09-11T16:55:03.840Z,1.70
2022-09-11T16:57:32.527Z,2.50
2022-09-11T17:00:00.373Z,2.30
2022-09-11T17:02:29.664Z,2.50
2022-09-11T17:04:57.234Z,2.50
2022-09-11T17:07:24.907Z,2.10
2022-09-11T17:09:52.619Z,2.50
2022-09-11T17:12:21.137Z,2.40
2022-09-11T17:14:50.035Z,2.40
2022-09-11T17:17:17.628Z,1.70
2022-09-11T17:19:45.229Z,1.70
2022-09-11T17:22:14.067Z,2.10
2022-09-11T17:24:41.722Z,2.10
2022-09-11T17:27:09.394Z,2.50
2022-09-11T17:29:41.180Z,1.70
2022-09-11T17:32:27.683Z,1.70
2022-09-11T17:34:58.479Z,2.10
2022-09-11T17:37:27.002Z,2.20
2022-09-11T17:39:55.589Z,2.00
2022-09-11T17:42:24.017Z,1.80
2022-09-11T17:44:51.872Z,2.10
2022-09-11T17:47:19.542Z,2.70
2022-09-11T17:49:47.157Z,2.40
2022-09-11T17:52:15.480Z,2.90
2022-09-11T17:54:43.349Z,2.70
2022-09-11T17:57:11.909Z,2.80
2022-09-11T17:59:39.531Z,1.70
2022-09-11T18:02:07.222Z,2.20
2022-09-11T18:04:34.880Z,2.00
2022-09-11T18:07:03.513Z,2.50
2022-09-11T18:09:32.070Z,2.00
2022-09-11T18:12:00.142Z,2.30
2022-09-11T18:14:28.029Z,2.10
2022-09-11T18:16:56.166Z,2.00
2022-09-11T18:19:24.255Z,1.90
2022-09-11T18:21:53.147Z,2.40
2022-09-11T18:24:21.092Z,2.80
2022-09-11T18:26:51.110Z,2.00
2022-09-11T18:29:20.973Z,2.60
2022-09-11T18:31:51.973Z,2.50
2022-09-11T18:34:23.411Z,1.90
2022-09-11T18:36:52.244Z,2.20
2022-09-11T18:39:21.183Z,2.80
2022-09-11T18:41:50.260Z,2.80
2022-09-11T18:44:20.484Z,2.90
2022-09-11T18:46:48.850Z,2.60
2022-09-11T18:49:16.687Z,2.20
2022-09-11T18:51:44.629Z,2.90
2022-09-11T18:54:14.965Z,2.50
2022-09-11T18:56:43.182Z,2.30
2022-09-11T18:59:12.531Z,3.00
2022-09-11T19:01:41.407Z,2.80
2022-09-11T19:04:11.132Z,2.50
2022-09-11T19:06:39.867Z,2.50
2022-09-11T19:09:10.354Z,2.80
2022-09-11T19:11:39.026Z,2.40
2022-09-11T19:14:09.663Z,3.00
2022-09-11T19:16:39.558Z,3.10
2022-09-11T19:19:08.118Z,2.60
2022-09-11T19:21:38.295Z,3.20
2022-09-11T19:24:07.488Z,2.50
2022-09-11T19:26:38.894Z,2.80
2022-09-11T19:29:08.739Z,3.00
2022-09-11T19:31:39.212Z,2.90
2022-09-11T19:34:11.872Z,2.70
2022-09-11T19:36:41.084Z,2.90
2022-09-11T19:39:10.178Z,2.50
2022-09-11T19:41:39.236Z,2.90
2022-09-11T19:44:09.981Z,2.60
2022-09-11T19:46:38.087Z,3.00
2022-09-11T19:49:07.075Z,2.70
2022-09-11T19:51:41.075Z,2.80
2022-09-11T19:54:11.722Z,2.50
2022-09-11T19:56:40.261Z,3.20
2022-09-11T19:59:09.656Z,2.70
2022-09-11T20:01:37.452Z,2.60
2022-09-11T20:04:05.190Z,2.80
2022-09-11T20:06:34.290Z,2.90
2022-09-11T20:11:52.492Z,3.10
2022-09-11T20:14:20.104Z,2.50
2022-09-11T20:16:47.738Z,2.90
2022-09-11T20:19:17.182Z,3.40
2022-09-11T20:21:44.817Z,3.30
2022-09-11T20:24:12.488Z,2.50
2022-09-11T20:26:40.102Z,3.10
2022-09-11T20:29:12.224Z,2.90
2022-09-11T20:31:47.650Z,2.60
2022-09-11T20:34:18.152Z,2.60
2022-09-11T20:36:46.840Z,2.90
2022-09-11T20:39:15.711Z,2.80
2022-09-11T20:41:43.835Z,2.70
2022-09-11T20:44:11.719Z,2.60
2022-09-11T20:46:40.637Z,3.20
2022-09-11T20:49:08.423Z,2.70
2022-09-11T20:51:36.435Z,2.90
2022-09-11T20:54:04.193Z,2.60
2022-09-11T20:56:31.893Z,3.30
2022-09-11T20:59:00.732Z,3.20
2022-09-11T21:01:33.635Z,3.20
2022-09-11T21:04:04.165Z,3.40
2022-09-11T21:06:34.422Z,2.90
2022-09-11T21:09:08.789Z,2.70
2022-09-11T21:11:38.711Z,3.00
2022-09-11T21:14:07.413Z,3.70
2022-09-11T21:16:35.206Z,3.00
2022-09-11T21:19:04.663Z,2.80
2022-09-11T21:21:34.108Z,3.50
2022-09-11T21:24:04.698Z,3.50
2022-09-11T21:26:33.999Z,3.90
2022-09-11T21:29:05.346Z,3.20
2022-09-11T21:31:35.156Z,2.90
2022-09-11T21:34:02.928Z,3.00
2022-09-11T21:36:30.558Z,2.60
2022-09-11T21:38:58.147Z,3.00
2022-09-11T21:41:25.823Z,3.60
2022-09-11T21:43:53.432Z,4.00
2022-09-11T21:46:21.443Z,3.60
2022-09-11T21:48:49.143Z,3.50
2022-09-11T21:51:20.151Z,3.40
2022-09-11T21:53:49.300Z,3.50
2022-09-11T21:56:21.888Z,3.20
2022-09-11T21:58:51.134Z,4.10
2022-09-11T22:01:20.842Z,3.70
2022-09-11T22:03:49.211Z,3.50
2022-09-11T22:06:17.625Z,3.40
2022-09-11T22:08:46.995Z,3.10
2022-09-11T22:11:15.995Z,4.80
2022-09-11T22:13:44.283Z,3.60
2022-09-11T22:16:14.661Z,4.20
2022-09-11T22:18:42.923Z,3.70
2022-09-11T22:21:12.513Z,3.70
2022-09-11T22:23:40.115Z,3.80
2022-09-11T22:26:16.774Z,4.50
2022-09-11T22:28:44.831Z,3.50
2022-09-11T22:31:19.446Z,3.90
2022-09-11T22:33:47.462Z,4.30
2022-09-11T22:36:33.759Z,4.20
2022-09-11T22:39:04.815Z,4.30
2022-09-11T22:41:32.499Z,3.90
2022-09-11T22:44:00.084Z,4.40
2022-09-11T22:46:27.724Z,3.80
2022-09-11T22:48:55.989Z,4.60
2022-09-11T22:51:24.028Z,3.90
2022-09-11T22:53:51.773Z,4.70
2022-09-11T22:56:19.710Z,4.60
2022-09-11T22:58:47.434Z,5.10
2022-09-11T23:01:22.125Z,4.30
2022-09-11T23:03:52.813Z,3.80
2022-09-11T23:06:37.246Z,3.60
2022-09-11T23:09:18.449Z,3.70
2022-09-11T23:11:46.618Z,3.80
2022-09-11T23:14:15.030Z,4.00
2022-09-11T23:16:43.810Z,3.70
2022-09-11T23:19:13.882Z,4.00
2022-09-11T23:21:42.515Z,3.80
2022-09-11T23:24:13.202Z,4.10
2022-09-11T23:26:40.859Z,3.90
2022-09-11T23:29:08.537Z,3.70
2022-09-11T23:31:36.514Z,4.00
2022-09-11T23:34:07.652Z,4.00
2022-09-11T23:36:36.303Z,3.80
2022-09-11T23:39:04.153Z,4.00
2022-09-11T23:41:31.986Z,3.40
2022-09-11T23:44:00.008Z,4.50
2022-09-11T23:46:27.711Z,4.70
2022-09-11T23:48:55.858Z,3.80
2022-09-11T23:51:23.502Z,4.40
2022-09-11T23:53:51.900Z,4.00
2022-09-11T23:56:20.894Z,3.80
2022-09-11T23:58:49.209Z,4.40
